サンサルバドル の空港の天気 - METARとTAF

エルサルバドル国際空港 ( MSLP / SAL ) - エルサルバドル サンサルバドル
飛行場実況気象(Metar)
観測時間09/29 06:50 CST (09/29 12:50 UTC)
風向・風速北東 2m/s
視程10km以上
天気現象
少しの雲 雲底高度 520m
気温25℃
湿度83%
気圧1010hPa
METARMSLP 291250Z 04003KT 010V080 9999 FEW017 25/22 Q1010 A2983 NOSIG
過去の天気等 Google飛行場航空写真 Wunderground天気予報

過去48時間のMETAR

飛行場予報(TAF)
発表時間: 9/29 03:25 CST (9/29 09:25 UTC)
予報対象時間: 29日6時 CST ~ 30日6時 CST
風向・風速東北東 3m/s
視程10km以上
少しの雲 雲底高度 700m
29日12時 CST から
風向・風速南南西 6m/s
視程10km以上
全天の4割程度の雲 雲底高度 700m
全天の4割程度の積乱雲 雲底高度 1010m
29日15時 CST ~ 29日17時 CST に一時的に
視程8000m
天気現象雷雨
29日18時 CST から
風向・風速不定 2m/s
視程10km以上
全天の4割程度の雲 雲底高度 700m
少しの積乱雲 雲底高度 1010m
29日22時 CST ~ 30日1時 CST に一時的に
視程5000m
天気現象雷雨
TAF MSLP 290925Z 2912/3012 06006KT 9999 FEW023 TX32/2918Z TN23/3012Z
FM291800 21012KT 9999 SCT023 SCT033CB
TEMPO 2921/2923 8000 TSRA
FM300000 VRB03KT 9999 SCT023 FEW033CB
TEMPO 3004/3007 5000 TSRA